Los Angeles, California
Traffic Map
Current Weather Conditions
Los Angeles, California
Few Clouds
Few Clouds
18°
Feels Like: 18°
Wind Chill: 18° Ceiling: Unl
Heat Index: 18° Visibility: 10mi
Dew Point: Wind: 0mph
Humidity: 58% Direction: ° ()
Pressure: 30.11in Gusts: 0mph
Raw Report DataKCQT 202147Z AUTO 00000KT 10SM FEW029 18/09 A3011 RMK AO2 SLP196 T01780094
Traffic Incident Summary
Active as of:
Severity:
Category:
InformationThere was an issue retrieving the traffic information for this location. Please try a different location or try again shortly.
Advertisements
Track Severe Weather on mobile